createdAt,value
2022-11-24T00:01:10.000Z,1.94
2022-11-24T00:03:37.072Z,1.89
2022-11-24T00:06:08.975Z,1.87
2022-11-24T00:08:36.999Z,1.89
2022-11-24T00:11:09.286Z,1.81
2022-11-24T00:13:39.053Z,1.79
2022-11-24T00:16:18.008Z,1.82
2022-11-24T00:18:46.672Z,1.92
2022-11-24T00:21:15.439Z,1.87
2022-11-24T00:23:42.854Z,2.00
2022-11-24T00:26:15.291Z,2.00
2022-11-24T00:28:43.111Z,1.82
2022-11-24T00:31:23.609Z,1.78
2022-11-24T00:33:52.472Z,1.90
2022-11-24T00:36:20.456Z,1.83
2022-11-24T00:38:48.197Z,1.82
2022-11-24T00:41:14.831Z,1.78
2022-11-24T00:43:41.541Z,1.90
2022-11-24T00:46:08.579Z,1.95
2022-11-24T00:48:35.404Z,2.03
2022-11-24T00:51:06.159Z,1.92
2022-11-24T00:53:33.440Z,1.66
2022-11-24T00:56:00.367Z,1.50
2022-11-24T00:58:27.075Z,1.41
2022-11-24T01:00:53.740Z,1.45
2022-11-24T01:03:21.069Z,1.12
2022-11-24T01:05:48.447Z,1.07
2022-11-24T01:08:15.259Z,1.10
2022-11-24T01:10:42.197Z,1.09
2022-11-24T01:13:08.851Z,0.99
2022-11-24T01:15:36.419Z,1.07
2022-11-24T01:18:04.307Z,1.02
2022-11-24T01:20:31.583Z,0.99
2022-11-24T01:22:58.541Z,0.95
2022-11-24T01:25:25.165Z,1.07
2022-11-24T01:27:51.864Z,0.95
2022-11-24T01:30:18.961Z,0.88
2022-11-24T01:32:45.604Z,1.07
2022-11-24T01:35:12.331Z,1.00
2022-11-24T01:37:39.466Z,1.01
2022-11-24T01:40:06.865Z,0.99
2022-11-24T01:42:48.477Z,1.12
2022-11-24T01:45:35.849Z,1.12
2022-11-24T01:48:07.729Z,1.07
2022-11-24T01:50:36.276Z,1.03
2022-11-24T01:53:04.409Z,1.03
2022-11-24T01:55:36.512Z,1.00
2022-11-24T01:58:05.613Z,1.18
2022-11-24T02:00:34.629Z,1.14
2022-11-24T02:03:01.405Z,1.15
2022-11-24T02:05:40.280Z,1.01
2022-11-24T02:08:15.224Z,1.10
2022-11-24T02:10:42.969Z,0.97
2022-11-24T02:13:09.671Z,0.84
2022-11-24T02:15:36.372Z,0.87
2022-11-24T02:18:03.140Z,0.79
2022-11-24T02:20:29.768Z,0.93
2022-11-24T02:23:14.923Z,0.83
2022-11-24T02:26:09.725Z,0.89
2022-11-24T02:28:36.923Z,0.94
2022-11-24T02:31:05.489Z,1.19
2022-11-24T02:33:34.355Z,1.10
2022-11-24T02:36:00.988Z,1.04
2022-11-24T02:38:34.790Z,0.97
2022-11-24T02:41:07.512Z,0.97
2022-11-24T02:43:39.383Z,0.98
2022-11-24T02:46:06.864Z,0.95
2022-11-24T02:48:33.841Z,1.05
2022-11-24T02:51:00.472Z,1.11
2022-11-24T02:53:27.106Z,1.02
2022-11-24T02:55:53.757Z,1.07
2022-11-24T02:58:20.521Z,1.09
2022-11-24T03:00:48.421Z,1.01
2022-11-24T03:03:15.106Z,1.07
2022-11-24T03:05:41.782Z,1.01
2022-11-24T03:08:08.413Z,0.96
2022-11-24T03:10:35.052Z,0.93
2022-11-24T03:13:01.700Z,0.94
2022-11-24T03:15:28.361Z,0.84
2022-11-24T03:17:56.746Z,0.82
2022-11-24T03:20:24.308Z,0.85
2022-11-24T03:22:51.028Z,0.89
2022-11-24T03:25:18.279Z,0.92
2022-11-24T03:27:45.295Z,0.96
2022-11-24T03:30:12.759Z,0.96
2022-11-24T03:32:39.593Z,1.03
2022-11-24T03:35:06.460Z,1.08
2022-11-24T03:37:33.087Z,1.27
2022-11-24T03:39:59.787Z,1.24
2022-11-24T03:42:26.457Z,1.20
2022-11-24T03:44:53.133Z,1.21
2022-11-24T03:47:19.777Z,1.27
2022-11-24T03:49:46.404Z,1.36
2022-11-24T03:52:13.179Z,1.40
2022-11-24T03:54:39.856Z,1.34
2022-11-24T03:57:06.427Z,1.27
2022-11-24T03:59:33.301Z,1.37
2022-11-24T04:01:59.976Z,1.39
2022-11-24T04:04:26.658Z,1.37
2022-11-24T04:06:53.391Z,1.35
2022-11-24T04:09:20.183Z,1.45
2022-11-24T04:12:05.467Z,1.48
2022-11-24T04:14:32.314Z,1.56
2022-11-24T04:16:59.351Z,1.33
2022-11-24T04:19:26.036Z,1.17
2022-11-24T04:21:52.641Z,1.17
2022-11-24T04:24:19.514Z,1.18
2022-11-24T04:26:46.120Z,1.09
2022-11-24T04:29:12.828Z,1.06
2022-11-24T04:31:39.748Z,0.97
2022-11-24T04:34:06.491Z,0.94
2022-11-24T04:36:33.288Z,1.13
2022-11-24T04:39:25.423Z,1.25
2022-11-24T04:41:47.623Z,1.21
2022-11-24T04:44:14.718Z,1.27
2022-11-24T04:46:41.408Z,1.25
2022-11-24T04:49:11.626Z,1.23
2022-11-24T04:51:39.830Z,1.18
2022-11-24T04:54:11.934Z,1.19
2022-11-24T04:56:39.121Z,1.19
2022-11-24T04:59:08.502Z,1.30
2022-11-24T05:01:35.456Z,1.17
2022-11-24T05:04:02.191Z,1.08
2022-11-24T05:06:28.938Z,1.09
2022-11-24T05:08:55.593Z,1.05
2022-11-24T05:11:22.221Z,1.11
2022-11-24T05:13:48.840Z,1.10
2022-11-24T05:16:15.785Z,1.00
2022-11-24T05:18:42.594Z,1.08
2022-11-24T05:21:09.331Z,1.11
2022-11-24T05:23:36.029Z,0.98
2022-11-24T05:26:03.798Z,1.00
2022-11-24T05:28:30.850Z,1.02
2022-11-24T05:31:02.519Z,1.00
2022-11-24T05:33:30.188Z,1.00
2022-11-24T05:36:01.505Z,1.04
2022-11-24T05:38:30.194Z,1.21
2022-11-24T05:41:04.851Z,1.18
2022-11-24T05:43:32.362Z,1.11
2022-11-24T05:46:00.533Z,1.16
2022-11-24T05:48:27.589Z,1.11
2022-11-24T05:50:58.134Z,1.12
2022-11-24T05:53:26.930Z,1.12
2022-11-24T05:55:53.835Z,1.10
2022-11-24T05:58:20.708Z,1.46
2022-11-24T06:00:47.400Z,1.72
2022-11-24T06:03:14.159Z,1.83
2022-11-24T06:05:45.416Z,2.11
2022-11-24T06:08:12.095Z,1.95
2022-11-24T06:10:38.921Z,1.72
2022-11-24T06:13:06.940Z,1.58
2022-11-24T06:15:35.590Z,1.45
2022-11-24T06:18:02.194Z,1.40
2022-11-24T06:20:32.687Z,1.41
2022-11-24T06:23:01.179Z,1.41
2022-11-24T06:25:29.134Z,1.28
2022-11-24T06:27:56.233Z,1.08
2022-11-24T06:30:22.866Z,1.15
2022-11-24T06:32:50.184Z,1.03
2022-11-24T06:35:17.305Z,0.84
2022-11-24T06:37:44.196Z,0.77
2022-11-24T06:40:11.102Z,0.79
2022-11-24T06:42:38.094Z,0.76
2022-11-24T06:45:09.119Z,0.81
2022-11-24T06:47:36.721Z,0.82
2022-11-24T06:50:03.746Z,0.83
2022-11-24T06:52:30.752Z,0.84
2022-11-24T06:54:57.416Z,0.91
2022-11-24T06:57:24.103Z,0.94
2022-11-24T06:59:50.803Z,0.90
2022-11-24T07:02:17.426Z,0.94
2022-11-24T07:04:44.077Z,0.92
2022-11-24T07:07:10.945Z,0.99
2022-11-24T07:09:37.641Z,1.03
2022-11-24T07:12:05.906Z,1.07
2022-11-24T07:14:33.308Z,1.13
2022-11-24T07:17:02.501Z,1.14
2022-11-24T07:19:29.399Z,1.09
2022-11-24T07:21:56.229Z,1.03
2022-11-24T07:24:22.925Z,0.98
2022-11-24T07:26:49.596Z,0.85
2022-11-24T07:29:16.232Z,0.86
2022-11-24T07:31:43.281Z,0.87
2022-11-24T07:34:10.120Z,0.92
2022-11-24T07:36:36.753Z,1.00
2022-11-24T07:39:06.537Z,1.09
2022-11-24T07:41:33.212Z,1.20
2022-11-24T07:43:59.809Z,1.39
2022-11-24T07:46:26.495Z,1.44
2022-11-24T07:48:53.161Z,1.50
2022-11-24T07:51:19.860Z,1.45
2022-11-24T07:53:46.659Z,1.44
2022-11-24T07:56:13.391Z,1.37
2022-11-24T07:58:40.149Z,1.30
2022-11-24T08:01:15.014Z,1.20
2022-11-24T08:03:43.020Z,1.25
2022-11-24T08:06:30.085Z,1.32
2022-11-24T08:08:57.338Z,1.41
2022-11-24T08:11:24.860Z,1.52
2022-11-24T08:13:51.823Z,1.56
2022-11-24T08:16:20.467Z,1.75
2022-11-24T08:18:53.319Z,2.24
2022-11-24T08:21:20.736Z,2.77
2022-11-24T08:23:47.360Z,3.64
2022-11-24T08:26:18.062Z,4.72
2022-11-24T08:28:48.042Z,5.68
2022-11-24T08:31:18.661Z,6.41
2022-11-24T08:33:46.360Z,6.65
2022-11-24T08:36:18.313Z,6.71
2022-11-24T08:38:46.500Z,6.37
2022-11-24T08:41:15.983Z,5.91
2022-11-24T08:43:43.179Z,5.62
2022-11-24T08:46:13.175Z,5.86
2022-11-24T08:48:40.017Z,6.32
2022-11-24T08:51:12.276Z,6.73
2022-11-24T08:53:39.685Z,6.46
2022-11-24T08:56:07.427Z,6.95
2022-11-24T08:58:34.655Z,8.11
2022-11-24T09:01:19.677Z,9.13
2022-11-24T09:03:51.421Z,11.46
2022-11-24T09:06:23.013Z,12.76
2022-11-24T09:08:49.997Z,13.34
2022-11-24T09:11:17.249Z,14.60
2022-11-24T09:13:44.803Z,15.07
2022-11-24T09:16:21.190Z,16.88
2022-11-24T09:18:48.625Z,17.68
2022-11-24T09:21:19.812Z,18.45
2022-11-24T09:23:51.202Z,18.14
2022-11-24T09:26:29.589Z,19.01
2022-11-24T09:28:57.663Z,19.64
2022-11-24T09:31:26.831Z,18.39
2022-11-24T09:33:54.231Z,16.62
2022-11-24T09:36:21.844Z,18.21
2022-11-24T09:38:51.217Z,19.02
2022-11-24T09:41:17.842Z,17.20
2022-11-24T09:43:57.332Z,18.13
2022-11-24T09:46:34.708Z,19.18
2022-11-24T09:49:04.822Z,20.09
2022-11-24T09:51:32.565Z,20.41
2022-11-24T09:54:11.489Z,20.28
2022-11-24T09:56:40.700Z,21.03
2022-11-24T09:59:12.840Z,21.15
2022-11-24T10:01:42.224Z,21.34
2022-11-24T10:04:45.672Z,22.06
2022-11-24T10:07:15.130Z,21.82
2022-11-24T10:10:00.546Z,22.14
2022-11-24T10:12:47.830Z,23.32
2022-11-24T10:15:22.429Z,23.88
2022-11-24T10:18:13.244Z,23.55
2022-11-24T10:21:01.778Z,21.64
2022-11-24T10:23:39.936Z,21.07
2022-11-24T10:26:19.810Z,18.87
2022-11-24T10:28:54.742Z,16.67
2022-11-24T10:31:40.760Z,14.18
2022-11-24T10:34:25.609Z,13.13
2022-11-24T10:36:57.356Z,13.26
2022-11-24T10:39:35.012Z,17.25
2022-11-24T10:42:18.067Z,17.27
2022-11-24T10:44:44.949Z,17.20
2022-11-24T10:47:22.832Z,16.59
2022-11-24T10:50:02.080Z,16.53
2022-11-24T10:52:32.733Z,17.31
2022-11-24T10:55:01.861Z,17.25
2022-11-24T10:57:39.293Z,18.96
2022-11-24T11:00:21.196Z,20.70
2022-11-24T11:02:49.054Z,21.55
2022-11-24T11:05:42.374Z,22.45
2022-11-24T11:08:19.970Z,22.62
2022-11-24T11:10:49.842Z,21.22
2022-11-24T11:13:27.654Z,21.14
2022-11-24T11:15:55.956Z,22.56
2022-11-24T11:18:29.891Z,23.16
2022-11-24T11:20:58.852Z,22.82
2022-11-24T11:23:29.008Z,23.44
2022-11-24T11:26:19.954Z,23.67
2022-11-24T11:34:53.505Z,21.99
2022-11-24T11:37:21.899Z,22.31
2022-11-24T11:39:50.896Z,23.20
2022-11-24T11:45:21.539Z,23.38
2022-11-24T11:47:57.340Z,23.86
2022-11-24T11:50:30.244Z,24.05
2022-11-24T11:53:25.759Z,24.33
2022-11-24T11:56:01.628Z,24.70
2022-11-24T11:58:31.488Z,23.64
2022-11-24T12:01:22.660Z,24.94
2022-11-24T12:03:49.349Z,25.56
2022-11-24T12:06:22.424Z,23.90
2022-11-24T12:09:29.155Z,23.30
2022-11-24T12:12:23.871Z,21.63
2022-11-24T12:14:56.687Z,23.12
2022-11-24T12:17:40.456Z,23.90
2022-11-24T12:20:44.844Z,24.15
2022-11-24T12:23:30.048Z,23.83
2022-11-24T12:26:15.556Z,24.53
2022-11-24T12:29:02.607Z,24.35
2022-11-24T12:31:59.397Z,24.10
2022-11-24T12:34:32.009Z,25.17
2022-11-24T12:37:08.813Z,25.10
2022-11-24T12:39:40.388Z,23.63
2022-11-24T12:42:52.363Z,23.08
2022-11-24T12:45:28.520Z,19.76
2022-11-24T12:48:30.381Z,17.64
2022-11-24T12:50:58.546Z,16.73
2022-11-24T12:53:33.668Z,15.64
2022-11-24T12:56:10.773Z,15.41
2022-11-24T12:59:05.714Z,16.50
2022-11-24T13:02:01.758Z,17.55
2022-11-24T13:04:40.060Z,15.73
2022-11-24T13:07:14.670Z,15.07
2022-11-24T13:10:18.778Z,16.37
2022-11-24T13:13:03.584Z,18.50
2022-11-24T13:15:45.534Z,19.54
2022-11-24T13:18:50.403Z,20.47
2022-11-24T13:21:42.821Z,21.77
2022-11-24T13:24:19.882Z,21.80
2022-11-24T13:26:48.632Z,22.06
2022-11-24T13:29:27.780Z,22.55
2022-11-24T13:32:15.618Z,23.49
2022-11-24T13:34:49.913Z,22.66
2022-11-24T13:37:29.080Z,22.87
2022-11-24T13:40:14.254Z,23.07
2022-11-24T13:43:03.327Z,22.94
2022-11-24T13:45:39.299Z,22.72
2022-11-24T13:48:21.641Z,21.75
2022-11-24T13:50:53.196Z,21.00
2022-11-24T13:53:36.884Z,19.83
2022-11-24T13:56:20.082Z,17.89
2022-11-24T13:58:54.755Z,16.19
2022-11-24T14:01:28.403Z,14.99
2022-11-24T14:04:34.197Z,13.75
2022-11-24T14:07:08.996Z,13.04
2022-11-24T14:09:40.246Z,12.20
2022-11-24T14:12:17.364Z,11.79
2022-11-24T14:14:46.268Z,11.50
2022-11-24T14:17:20.529Z,10.73
2022-11-24T14:19:49.872Z,10.57
2022-11-24T14:22:39.396Z,10.42
2022-11-24T14:25:07.995Z,9.99
2022-11-24T14:27:37.087Z,9.70
2022-11-24T14:30:09.515Z,9.44
2022-11-24T14:32:37.922Z,9.05
2022-11-24T14:35:28.402Z,8.87
2022-11-24T14:37:55.875Z,8.56
2022-11-24T14:40:45.233Z,8.33
2022-11-24T14:43:27.028Z,8.17
2022-11-24T14:45:56.934Z,8.01
2022-11-24T14:48:27.298Z,7.80
2022-11-24T14:51:04.197Z,7.66
2022-11-24T14:53:31.148Z,7.46
2022-11-24T14:56:16.464Z,7.33
2022-11-24T14:58:43.387Z,7.16
2022-11-24T15:01:18.870Z,7.01
2022-11-24T15:03:46.337Z,6.86
2022-11-24T15:06:20.777Z,6.77
2022-11-24T15:08:49.849Z,6.65
2022-11-24T15:11:16.508Z,6.56
2022-11-24T15:13:54.049Z,6.41
2022-11-24T15:16:24.072Z,6.27
2022-11-24T15:19:01.567Z,6.20
2022-11-24T15:21:31.913Z,6.05
2022-11-24T15:24:17.084Z,5.98
2022-11-24T15:26:45.228Z,5.93
2022-11-24T15:29:12.968Z,5.81
2022-11-24T15:31:41.420Z,5.74
2022-11-24T15:34:13.954Z,5.65
2022-11-24T15:36:40.910Z,5.63
2022-11-24T15:39:07.543Z,5.56
2022-11-24T15:41:34.759Z,5.54
2022-11-24T15:44:01.767Z,5.48
2022-11-24T15:46:30.231Z,5.40
2022-11-24T15:48:57.312Z,5.30
2022-11-24T15:51:26.697Z,5.21
2022-11-24T15:54:00.384Z,5.09
2022-11-24T15:56:36.509Z,4.99
2022-11-24T15:59:03.858Z,4.97
2022-11-24T16:01:32.959Z,4.86
2022-11-24T16:04:01.699Z,4.69
2022-11-24T16:06:28.665Z,4.63
2022-11-24T16:08:55.366Z,4.59
2022-11-24T16:11:22.844Z,4.59
2022-11-24T16:13:53.444Z,4.63
2022-11-24T16:16:22.750Z,4.56
2022-11-24T16:18:49.769Z,4.49
2022-11-24T16:21:16.575Z,4.51
2022-11-24T16:23:43.284Z,4.53
2022-11-24T16:26:10.835Z,4.53
2022-11-24T16:28:37.439Z,4.57
2022-11-24T16:31:04.668Z,4.52
2022-11-24T16:33:31.703Z,4.48
2022-11-24T16:35:58.734Z,4.56
2022-11-24T16:38:25.531Z,4.55
2022-11-24T16:40:54.015Z,4.60
2022-11-24T16:43:20.762Z,4.58
2022-11-24T16:46:01.387Z,4.56
2022-11-24T16:48:28.084Z,4.52
2022-11-24T16:50:55.321Z,4.50
2022-11-24T16:53:21.975Z,4.55
2022-11-24T16:55:57.021Z,4.59
2022-11-24T16:58:24.203Z,4.63
2022-11-24T17:00:51.042Z,4.60
2022-11-24T17:03:17.661Z,4.62
2022-11-24T17:05:44.917Z,4.52
2022-11-24T17:08:11.533Z,4.55
2022-11-24T17:10:38.724Z,4.54
2022-11-24T17:13:05.966Z,4.53
2022-11-24T17:15:36.627Z,4.50
2022-11-24T17:18:24.064Z,4.48
2022-11-24T17:20:51.509Z,4.46
2022-11-24T17:23:19.752Z,4.46
2022-11-24T17:25:48.337Z,4.39
2022-11-24T17:28:16.855Z,4.31
2022-11-24T17:30:43.546Z,4.31
2022-11-24T17:33:10.644Z,4.23
2022-11-24T17:35:37.637Z,4.14
2022-11-24T17:38:04.554Z,4.20
2022-11-24T17:40:31.307Z,4.15
2022-11-24T17:42:59.848Z,4.09
2022-11-24T17:45:32.024Z,4.09
2022-11-24T17:48:00.740Z,4.21
2022-11-24T17:50:27.394Z,4.22
2022-11-24T17:52:54.433Z,4.13
2022-11-24T17:55:21.792Z,4.04
2022-11-24T17:57:48.399Z,4.04
2022-11-24T18:00:15.678Z,3.96
2022-11-24T18:02:42.312Z,4.02
2022-11-24T18:05:09.605Z,4.01
2022-11-24T18:07:37.073Z,3.99
2022-11-24T18:10:04.968Z,3.93
2022-11-24T18:12:32.610Z,3.82
2022-11-24T18:14:59.863Z,3.74
2022-11-24T18:17:26.532Z,3.79
2022-11-24T18:19:53.221Z,3.77
2022-11-24T18:22:36.710Z,3.68
2022-11-24T18:25:07.203Z,3.62
2022-11-24T18:27:33.843Z,3.59
2022-11-24T18:30:01.318Z,3.58
2022-11-24T18:32:27.968Z,3.65
2022-11-24T18:34:55.223Z,3.57
2022-11-24T18:37:21.896Z,3.63
2022-11-24T18:39:48.563Z,3.64
2022-11-24T18:42:15.660Z,3.62
2022-11-24T18:44:42.748Z,3.62
2022-11-24T18:47:09.429Z,3.63
2022-11-24T18:49:36.267Z,3.53
2022-11-24T18:52:03.003Z,3.50
2022-11-24T18:54:30.317Z,3.49
2022-11-24T18:57:01.837Z,3.45
2022-11-24T18:59:30.045Z,3.43
2022-11-24T19:01:58.014Z,3.32
2022-11-24T19:04:26.364Z,3.27
2022-11-24T19:06:53.007Z,3.24
2022-11-24T19:09:22.571Z,3.22
2022-11-24T19:11:49.436Z,3.09
2022-11-24T19:14:19.172Z,2.96
2022-11-24T19:16:51.320Z,3.09
2022-11-24T19:19:18.210Z,3.22
2022-11-24T19:21:45.184Z,3.24
2022-11-24T19:24:17.724Z,3.20
2022-11-24T19:26:44.533Z,3.12
2022-11-24T19:29:11.813Z,3.12
2022-11-24T19:31:39.934Z,3.12
2022-11-24T19:34:08.171Z,3.04
2022-11-24T19:36:37.603Z,2.98
2022-11-24T19:39:05.700Z,2.91
2022-11-24T19:41:34.167Z,2.90
2022-11-24T19:44:03.102Z,2.84
2022-11-24T19:46:31.791Z,2.79
2022-11-24T19:49:01.243Z,2.72
2022-11-24T19:51:34.261Z,2.65
2022-11-24T19:54:02.052Z,2.61
2022-11-24T19:56:32.331Z,2.60
2022-11-24T19:58:59.025Z,2.59
2022-11-24T20:01:28.037Z,2.52
2022-11-24T20:04:03.844Z,2.43
2022-11-24T20:06:33.732Z,2.40
2022-11-24T20:09:02.045Z,2.44
2022-11-24T20:11:29.165Z,2.28
2022-11-24T20:13:58.723Z,2.22
2022-11-24T20:16:30.016Z,2.15
2022-11-24T20:19:07.465Z,2.12
2022-11-24T20:21:43.412Z,2.09
2022-11-24T20:24:13.845Z,2.07
2022-11-24T20:26:53.809Z,2.04
2022-11-24T20:29:45.278Z,1.97
2022-11-24T20:32:20.519Z,1.90
2022-11-24T20:34:47.348Z,1.89
2022-11-24T20:37:18.496Z,1.82
2022-11-24T20:39:48.242Z,1.77
2022-11-24T20:42:15.365Z,1.73
2022-11-24T20:44:46.293Z,1.73
2022-11-24T20:47:19.313Z,1.73
2022-11-24T20:49:49.287Z,1.73
2022-11-24T20:52:17.056Z,1.68
2022-11-24T20:54:46.720Z,1.63
2022-11-24T20:57:15.017Z,1.62
2022-11-24T20:59:44.935Z,1.63
2022-11-24T21:02:13.107Z,1.62
2022-11-24T21:04:39.836Z,1.53
2022-11-24T21:07:07.625Z,1.50
2022-11-24T21:09:34.767Z,1.43
2022-11-24T21:12:01.803Z,1.46
2022-11-24T21:14:35.018Z,1.47
2022-11-24T21:17:01.951Z,1.45
2022-11-24T21:19:29.600Z,1.47
2022-11-24T21:21:56.221Z,1.43
2022-11-24T21:24:24.107Z,1.35
2022-11-24T21:26:53.915Z,1.34
2022-11-24T21:29:23.936Z,1.37
2022-11-24T21:31:51.604Z,1.37
2022-11-24T21:34:19.443Z,1.41
2022-11-24T21:36:47.029Z,1.35
2022-11-24T21:39:15.772Z,1.29
2022-11-24T21:41:42.724Z,1.26
2022-11-24T21:44:11.755Z,1.19
2022-11-24T21:46:44.078Z,1.13
2022-11-24T21:49:13.340Z,1.08
2022-11-24T21:51:39.960Z,0.95
2022-11-24T21:54:07.053Z,0.93
2022-11-24T21:56:34.342Z,0.85
2022-11-24T21:59:02.020Z,0.93
2022-11-24T22:01:31.291Z,0.79
2022-11-24T22:03:59.842Z,0.77
2022-11-24T22:06:27.286Z,0.79
2022-11-24T22:08:55.469Z,0.77
2022-11-24T22:11:24.720Z,0.78
2022-11-24T22:13:52.815Z,0.79
2022-11-24T22:16:24.668Z,0.74
2022-11-24T22:18:52.365Z,0.74
2022-11-24T22:21:29.853Z,0.73
2022-11-24T22:23:56.646Z,0.67
2022-11-24T22:26:24.802Z,0.61
2022-11-24T22:28:52.772Z,0.69
2022-11-24T22:31:23.024Z,0.64
2022-11-24T22:33:51.066Z,0.57
2022-11-24T22:36:21.132Z,0.58
2022-11-24T22:38:53.188Z,0.50
2022-11-24T22:41:19.893Z,0.44
2022-11-24T22:43:46.776Z,0.40
2022-11-24T22:46:19.474Z,0.38
2022-11-24T22:48:47.785Z,0.54
2022-11-24T22:51:16.731Z,0.41
2022-11-24T22:53:48.991Z,0.31
2022-11-24T22:56:16.604Z,0.28
2022-11-24T22:58:43.524Z,0.29
2022-11-24T23:01:19.155Z,0.30
2022-11-24T23:03:47.494Z,0.24
2022-11-24T23:06:16.846Z,0.26
2022-11-24T23:08:44.499Z,0.26
2022-11-24T23:11:16.413Z,0.23
2022-11-24T23:13:44.071Z,0.16
2022-11-24T23:16:16.611Z,0.12
2022-11-24T23:18:46.294Z,0.05
2022-11-24T23:21:20.759Z,-0.11
2022-11-24T23:23:49.094Z,-0.15
2022-11-24T23:26:28.131Z,-0.18
2022-11-24T23:28:55.094Z,-0.16
2022-11-24T23:31:29.892Z,-0.20
2022-11-24T23:34:01.956Z,-0.22
2022-11-24T23:36:29.354Z,-0.11
2022-11-24T23:38:56.208Z,-0.07
2022-11-24T23:41:25.617Z,-0.02
2022-11-24T23:43:52.682Z,-0.12
2022-11-24T23:46:24.229Z,-0.19
2022-11-24T23:48:53.137Z,-0.24
2022-11-24T23:51:31.719Z,-0.27
2022-11-24T23:53:59.756Z,-0.32
2022-11-24T23:56:32.749Z,-0.29
2022-11-24T23:59:01.013Z,-0.34
